Wetterdaten: aktuell Dienstag, 20.10.2020 15:15
Datum Zeit Temp. A. Feuchte A. Luftdruck Regen Wind Taupunkt Windchill Windben
20.10.2020 15:15 13,6 C 65 % 1017,4 hPa 0,0 l/m 6,1 km/h (2 Bft) 7,1 C 13,6 C 11,3 km/h (2 Bft)
20.10.2020 15:10 13,6 C 65 % 1017,5 hPa 0,0 l/m 7,5 km/h (2 Bft) 7,1 C 12,9 C 14,5 km/h (3 Bft)
20.10.2020 15:05 13,6 C 66 % 1017,7 hPa 0,0 l/m 7,2 km/h (2 Bft) 7,4 C 13,1 C 12,9 km/h (3 Bft)
20.10.2020 15:00 13,6 C 66 % 1017,7 hPa 0,0 l/m 7,1 km/h (2 Bft) 7,4 C 13,2 C 16,1 km/h (3 Bft)
20.10.2020 14:55 13,5 C 66 % 1017,8 hPa 0,0 l/m 4,8 km/h (1 Bft) 7,3 C 13,5 C 9,7 km/h (2 Bft)
20.10.2020 14:50 13,4 C 67 % 1018,0 hPa 0,0 l/m 4,8 km/h (1 Bft) 7,4 C 13,4 C 12,9 km/h (3 Bft)
20.10.2020 14:45 13,4 C 65 % 1017,8 hPa 0,0 l/m 8,0 km/h (2 Bft) 7,0 C 12,4 C 14,5 km/h (3 Bft)
20.10.2020 14:40 13,6 C 66 % 1017,9 hPa 0,0 l/m 9,8 km/h (2 Bft) 7,4 C 11,7 C 17,7 km/h (3 Bft)
20.10.2020 14:36 13,6 C 65 % 1017,9 hPa 0,0 l/m 7,1 km/h (2 Bft) 7,1 C 13,2 C 16,1 km/h (3 Bft)
20.10.2020 14:30 13,4 C 65 % 1018,2 hPa 0,0 l/m 6,5 km/h (2 Bft) 7,0 C 13,4 C 16,1 km/h (3 Bft)
20.10.2020 14:25 13,4 C 64 % 1018,2 hPa 0,0 l/m 9,7 km/h (2 Bft) 6,7 C 11,5 C 16,1 km/h (3 Bft)
20.10.2020 14:20 13,6 C 66 % 1018,2 hPa 0,0 l/m 7,8 km/h (2 Bft) 7,4 C 12,7 C 16,1 km/h (3 Bft)
20.10.2020 14:15 13,6 C 64 % 1018,0 hPa 0,0 l/m 10,7 km/h (2 Bft) 6,9 C 11,2 C 20,9 km/h (4 Bft)
20.10.2020 14:10 13,6 C 65 % 1018,2 hPa 0,0 l/m 8,5 km/h (2 Bft) 7,1 C 12,4 C 19,3 km/h (3 Bft)
20.10.2020 14:05 13,3 C 66 % 1018,3 hPa 0,0 l/m 10,1 km/h (2 Bft) 7,1 C 11,2 C 17,7 km/h (3 Bft)
20.10.2020 14:00 12,9 C 69 % 1018,4 hPa 0,0 l/m 7,5 km/h (2 Bft) 7,4 C 12,2 C 16,1 km/h (3 Bft)
20.10.2020 13:55 12,7 C 68 % 1018,8 hPa 0,0 l/m 4,8 km/h (1 Bft) 6,9 C 12,7 C 11,3 km/h (2 Bft)
20.10.2020 13:50 12,6 C 69 % 1018,8 hPa 0,0 l/m 7,5 km/h (2 Bft) 7,1 C 11,9 C 16,1 km/h (3 Bft)
20.10.2020 13:45 12,6 C 67 % 1018,9 hPa 0,0 l/m 8,9 km/h (2 Bft) 6,6 C 11,1 C 16,1 km/h (3 Bft)
20.10.2020 13:40 12,5 C 68 % 1019,0 hPa 0,0 l/m 8,2 km/h (2 Bft) 6,8 C 11,4 C 17,7 km/h (3 Bft)
20.10.2020 13:35 12,4 C 68 % 1018,8 hPa 0,0 l/m 5,8 km/h (2 Bft) 6,7 C 12,4 C 14,5 km/h (3 Bft)
_ Min-Zeit 07:35 14:15 15:15 - 00:25 06:50 06:50 00:30
Minimum _ -0,2 C 64 % 1017,4 hPa - 0,0 km/h (0 Bft) -2,3 C -0,1 C 0,0 km/h (0 Bft)
_ Max-Zeit 14:15 07:45 00:00 00:00 14:15 14:50 15:15 10:00
Maximum _ 13,7 C 87 % 1023,0 hPa 0,0 l/m 10,7 km/h
O-NO (2 Bft)
7,4 C 13,6 C 22,5 km/h
O-SO (4 Bft)
Durchschnitt _ 4,3 C 81 % 1020,3 hPa #0,0 l/m 4,6 km/h (1 Bft) 1,3 C 3,9 C 9,1 km/h (2 Bft)